Time;durP1;ratioP1;P1;durP2;ratioP2;P2;SDS_P1;SDS_P2;PMS_P1;PMS_P2;Temp;Humidity;BMP_temperature;BMP_pressure;BME280_temperature;BME280_humidity;BME280_pressure;Samples;Min_cycle;Max_cycle;Signal;HPM_P1;HPM_P2
2024/01/15 00:04:59;;;;;;;6.53;2.73;;;2.00;1.00;;;;;;10410329;28;20202;-78
2024/01/15 00:10:21;;;;;;;3.00;2.17;;;1.90;99.90;;;;;;10414877;28;20278;-78
2024/01/15 00:15:42;;;;;;;5.20;2.67;;;1.90;99.90;;;;;;10437458;28;20227;-79
2024/01/15 00:21:03;;;;;;;3.87;2.30;;;1.90;45.30;;;;;;10436155;28;20195;-79
2024/01/15 00:26:25;;;;;;;6.10;2.53;;;1.90;1.00;;;;;;10436158;28;20192;-80
2024/01/15 00:31:46;;;;;;;4.30;2.47;;;1.90;1.00;;;;;;10391423;28;20203;-78
2024/01/15 00:37:08;;;;;;;3.97;2.43;;;2.00;99.90;;;;;;10394272;28;20282;-79
2024/01/15 00:42:29;;;;;;;4.37;2.67;;;1.90;99.90;;;;;;10396956;28;20489;-80
2024/01/15 00:47:50;;;;;;;3.83;2.07;;;1.80;37.20;;;;;;10434309;28;20223;-78
2024/01/15 00:53:11;;;;;;;4.60;3.10;;;1.90;99.90;;;;;;10435341;28;20232;-78
2024/01/15 00:58:33;;;;;;;4.07;2.43;;;1.80;1.00;;;;;;10428503;28;20602;-79
2024/01/15 01:03:54;;;;;;;2.13;1.80;;;1.80;82.50;;;;;;10408765;28;20193;-78
2024/01/15 01:09:15;;;;;;;2.50;1.80;;;1.80;99.90;;;;;;10394137;28;20209;-79
2024/01/15 01:14:36;;;;;;;4.43;1.77;;;1.80;1.00;;;;;;10395254;28;20243;-79
2024/01/15 01:19:58;;;;;;;2.80;1.60;;;1.90;1.00;;;;;;10432081;28;20235;-78
2024/01/15 01:25:19;;;;;;;4.50;2.20;;;1.80;1.00;;;;;;10434717;28;20203;-79
2024/01/15 01:30:40;;;;;;;2.10;1.83;;;1.80;1.00;;;;;;10407362;28;20203;-79
2024/01/15 01:36:07;;;;;;;2.80;2.07;;;1.80;1.00;;;;;;10394902;28;20507;-78
2024/01/15 01:41:29;;;;;;;2.73;1.60;;;1.80;1.00;;;;;;10394943;28;20227;-79
2024/01/15 01:46:50;;;;;;;2.97;1.90;;;1.80;1.00;;;;;;10415108;28;20225;-78
2024/01/15 01:52:13;;;;;;;3.77;2.23;;;1.90;1.00;;;;;;10400957;28;20185;-78
2024/01/15 01:57:35;;;;;;;2.63;2.10;;;1.80;99.90;;;;;;10400080;28;20229;-81
2024/01/15 02:02:56;;;;;;;2.60;2.20;;;1.90;99.90;;;;;;10416964;28;20239;-79
2024/01/15 02:08:18;;;;;;;3.37;2.13;;;1.90;1.00;;;;;;10399947;28;20201;-79
2024/01/15 02:13:39;;;;;;;2.50;1.97;;;1.90;99.90;;;;;;10399882;28;20221;-78
2024/01/15 02:19:00;;;;;;;3.33;2.10;;;1.80;1.00;;;;;;10402573;28;20205;-80
2024/01/15 02:24:22;;;;;;;3.20;2.10;;;1.90;99.90;;;;;;10431285;28;20189;-78
2024/01/15 02:29:43;;;;;;;3.57;2.30;;;1.80;1.00;;;;;;10424097;28;20216;-80
2024/01/15 02:35:05;;;;;;;3.07;2.20;;;1.70;99.90;;;;;;10400309;28;20221;-80
2024/01/15 02:40:26;;;;;;;1.77;1.67;;;1.80;1.00;;;;;;10400363;28;20211;-79
2024/01/15 02:45:47;;;;;;;2.30;2.10;;;1.80;1.00;;;;;;10421564;28;20202;-78
2024/01/15 02:51:08;;;;;;;2.43;1.80;;;1.80;99.90;;;;;;10404429;28;20203;-78
2024/01/15 02:56:29;;;;;;;3.80;3.00;;;1.80;18.90;;;;;;10400572;28;21550;-78
2024/01/15 03:01:50;;;;;;;4.37;1.93;;;1.80;1.00;;;;;;10399361;28;20285;-79
2024/01/15 03:07:12;;;;;;;1.90;1.70;;;1.70;99.90;;;;;;10398116;28;20265;-78
2024/01/15 03:12:33;;;;;;;2.27;2.07;;;1.70;99.90;;;;;;10398910;28;20492;-80
2024/01/15 03:17:54;;;;;;;2.33;1.93;;;1.70;1.00;;;;;;10411368;28;20544;-78
2024/01/15 03:23:15;;;;;;;2.57;2.37;;;1.70;1.00;;;;;;10420126;28;20238;-80
2024/01/15 03:28:37;;;;;;;2.60;2.17;;;1.70;99.90;;;;;;10438841;28;20192;-81
2024/01/15 03:33:58;;;;;;;2.40;2.13;;;1.70;1.00;;;;;;10423960;28;20515;-82
2024/01/15 03:39:20;;;;;;;3.90;2.30;;;1.60;99.90;;;;;;10438118;28;20200;-80
2024/01/15 03:44:43;;;;;;;2.97;2.40;;;1.70;1.00;;;;;;10437729;28;20551;-82
2024/01/15 03:50:06;;;;;;;3.50;2.70;;;1.60;32.00;;;;;;10409111;28;20209;-81
2024/01/15 03:55:27;;;;;;;2.17;1.97;;;1.60;99.90;;;;;;10410301;28;20315;-80
2024/01/15 04:00:49;;;;;;;2.60;2.30;;;1.60;1.00;;;;;;10396934;28;20251;-79
2024/01/15 04:06:10;;;;;;;3.73;3.00;;;1.60;99.90;;;;;;10395682;28;20253;-79
2024/01/15 04:11:31;;;;;;;2.77;2.43;;;1.60;50.60;;;;;;10394882;28;20199;-80
2024/01/15 04:16:52;;;;;;;4.63;3.00;;;1.60;1.00;;;;;;10405242;28;20322;-78
2024/01/15 04:22:15;;;;;;;2.90;2.60;;;1.60;99.90;;;;;;10409480;28;20265;-78
2024/01/15 04:27:36;;;;;;;3.03;2.50;;;1.60;1.00;;;;;;10436191;28;20193;-79
2024/01/15 04:32:57;;;;;;;3.23;2.80;;;1.50;1.00;;;;;;10435599;28;20494;-79
2024/01/15 04:38:19;;;;;;;5.50;3.20;;;1.60;1.00;;;;;;10436788;28;20271;-78
2024/01/15 04:43:40;;;;;;;2.97;2.17;;;1.50;1.00;;;;;;10421373;28;20238;-82
2024/01/15 04:49:01;;;;;;;2.17;1.53;;;1.60;1.00;;;;;;10417067;28;20200;-78
2024/01/15 04:54:23;;;;;;;1.87;1.10;;;1.70;99.90;;;;;;10395170;28;20212;-78
2024/01/15 04:59:44;;;;;;;1.60;1.50;;;1.60;99.90;;;;;;10394902;28;20281;-78
2024/01/15 05:05:05;;;;;;;2.40;1.50;;;1.50;1.00;;;;;;10380076;28;20196;-79
2024/01/15 05:10:26;;;;;;;3.27;1.27;;;1.60;99.90;;;;;;10397512;28;20207;-79
2024/01/15 05:15:48;;;;;;;2.33;1.30;;;1.50;1.00;;;;;;10397423;28;20219;-79
2024/01/15 05:21:09;;;;;;;4.93;1.30;;;1.50;99.90;;;;;;10424532;28;20253;-78
2024/01/15 05:26:31;;;;;;;2.90;1.20;;;1.30;99.90;;;;;;10443738;28;20198;-80
2024/01/15 05:31:53;;;;;;;4.63;1.17;;;1.30;1.00;;;;;;10442132;28;20272;-79
2024/01/15 05:37:15;;;;;;;2.33;1.10;;;1.20;99.90;;;;;;10416578;28;20253;-78
2024/01/15 05:42:36;;;;;;;4.77;1.57;;;1.10;1.00;;;;;;10402164;28;20192;-80
2024/01/15 05:47:57;;;;;;;4.17;1.43;;;1.10;1.00;;;;;;10440174;28;20244;-79
2024/01/15 05:53:18;;;;;;;5.13;1.47;;;1.10;1.00;;;;;;10441543;28;20191;-79
2024/01/15 05:58:39;;;;;;;7.83;3.97;;;1.20;1.00;;;;;;10427081;28;20524;-81
2024/01/15 06:04:01;;;;;;;13.63;4.30;;;1.20;1.00;;;;;;10441303;28;20295;-80
2024/01/15 06:09:22;;;;;;;12.27;4.50;;;1.20;99.90;;;;;;10414862;28;20249;-80
2024/01/15 06:14:43;;;;;;;9.73;4.67;;;1.30;1.00;;;;;;10399350;28;20232;-80
2024/01/15 06:20:06;;;;;;;16.60;6.77;;;1.40;1.00;;;;;;10439613;28;20193;-79
2024/01/15 06:25:27;;;;;;;14.83;5.13;;;1.40;1.00;;;;;;10440590;28;20222;-82
2024/01/15 06:30:48;;;;;;;9.00;3.10;;;1.40;41.40;;;;;;10440319;28;20195;-81
2024/01/15 06:36:10;;;;;;;4.97;2.50;;;1.30;1.00;;;;;;10438188;28;20249;-82
2024/01/15 06:41:32;;;;;;;6.97;3.00;;;1.20;99.90;;;;;;10398682;28;20199;-79
2024/01/15 06:46:57;;;;;;;8.87;3.20;;;1.30;1.00;;;;;;10415443;28;20402;-78
2024/01/15 06:52:18;;;;;;;5.07;2.60;;;1.30;99.90;;;;;;10426219;28;20199;-81
2024/01/15 06:57:39;;;;;;;6.67;3.20;;;1.50;1.00;;;;;;10424998;28;20286;-78
2024/01/15 07:03:00;;;;;;;5.70;3.00;;;1.60;1.00;;;;;;10425001;28;20240;-81
2024/01/15 07:08:22;;;;;;;5.67;2.80;;;1.70;99.90;;;;;;10402735;28;20286;-81
2024/01/15 07:13:43;;;;;;;6.10;2.90;;;1.50;99.90;;;;;;10397236;28;20447;-82
2024/01/15 07:19:07;;;;;;;13.60;6.23;;;1.40;1.00;;;;;;10429713;28;20199;-83
2024/01/15 07:24:28;;;;;;;10.60;4.10;;;1.40;99.90;;;;;;10403759;28;20487;-83
2024/01/15 07:29:50;;;;;;;12.57;3.80;;;1.30;1.00;;;;;;10398264;28;20201;-81
2024/01/15 07:35:11;;;;;;;5.83;3.53;;;1.40;56.90;;;;;;10397262;28;20249;-82
2024/01/15 07:40:32;;;;;;;40.70;25.00;;;1.40;60.30;;;;;;10396548;28;20204;-78
2024/01/15 07:45:53;;;;;;;12.77;6.77;;;1.30;1.00;;;;;;10432166;28;20203;-80
2024/01/15 07:51:15;;;;;;;9.63;5.40;;;1.30;99.90;;;;;;10438202;28;20560;-78
2024/01/15 07:56:57;;;;;;;9.13;3.90;;;1.40;1.00;;;;;;10437678;28;20215;-78
2024/01/15 08:02:19;;;;;;;9.43;4.00;;;1.50;99.90;;;;;;10417573;28;20493;-79
2024/01/15 08:07:40;;;;;;;9.97;3.67;;;1.50;1.00;;;;;;10424605;28;20312;-79
2024/01/15 08:13:01;;;;;;;11.73;5.37;;;1.60;1.00;;;;;;10402118;28;20253;-78
2024/01/15 08:18:22;;;;;;;8.23;3.77;;;1.60;1.00;;;;;;10424375;28;20410;-79
2024/01/15 08:23:44;;;;;;;11.23;4.63;;;1.70;99.90;;;;;;10417514;28;20230;-77
2024/01/15 08:29:05;;;;;;;4.57;2.57;;;1.60;99.90;;;;;;10416753;28;20418;-77
2024/01/15 08:34:26;;;;;;;4.77;2.10;;;1.70;1.00;;;;;;10404157;28;20534;-82
2024/01/15 08:39:49;;;;;;;7.77;2.83;;;1.70;1.00;;;;;;10383606;28;20184;-81
2024/01/15 08:45:12;;;;;;;15.17;4.30;;;2.90;1.00;;;;;;10423723;28;20204;-78
2024/01/15 08:50:34;;;;;;;18.67;7.27;;;4.30;99.90;;;;;;10415900;28;20203;-78
2024/01/15 08:55:55;;;;;;;33.10;11.47;;;4.80;1.00;;;;;;10416191;28;20246;-78
2024/01/15 09:01:16;;;;;;;12.17;4.87;;;5.10;1.00;;;;;;10435202;28;20387;-84
2024/01/15 09:06:37;;;;;;;11.53;5.47;;;4.90;1.00;;;;;;10409958;28;20289;-77
2024/01/15 09:11:59;;;;;;;10.50;5.20;;;4.10;1.00;;;;;;10428423;28;20220;-79
2024/01/15 09:17:23;;;;;;;14.00;4.57;;;3.30;18.30;;;;;;10404913;28;20227;-82
2024/01/15 09:22:44;;;;;;;8.57;2.80;;;3.10;99.90;;;;;;10416205;28;20370;-78
2024/01/15 09:28:06;;;;;;;9.93;4.70;;;3.10;99.90;;;;;;10438791;28;20279;-76
2024/01/15 09:33:28;;;;;;;13.43;3.63;;;3.20;99.90;;;;;;10434013;28;20204;-90
2024/01/15 09:38:49;;;;;;;14.57;4.77;;;3.20;99.90;;;;;;10404640;28;20303;-77
2024/01/15 09:44:12;;;;;;;9.73;3.90;;;3.00;1.00;;;;;;10413095;28;20205;-79
2024/01/15 09:49:33;;;;;;;8.67;2.80;;;2.90;99.90;;;;;;10471019;28;20215;-78
2024/01/15 09:54:54;;;;;;;6.97;2.00;;;2.90;99.90;;;;;;10445543;28;20294;-77
2024/01/15 10:00:19;;;;;;;4.43;1.00;;;2.60;99.90;;;;;;10442327;28;20258;-81
2024/01/15 10:05:41;;;;;;;9.03;3.60;;;2.60;99.90;;;;;;10457352;28;20832;-76
2024/01/15 10:11:04;;;;;;;6.23;1.50;;;2.50;99.90;;;;;;10439263;28;20209;-76
2024/01/15 10:16:26;;;;;;;4.60;1.77;;;2.50;99.90;;;;;;10398856;28;20235;-76
2024/01/15 10:21:47;;;;;;;2.63;1.03;;;2.50;99.90;;;;;;10466955;28;20393;-76
2024/01/15 10:27:10;;;;;;;9.70;4.73;;;2.40;99.90;;;;;;10450880;28;20239;-77
2024/01/15 10:32:31;;;;;;;6.70;2.43;;;2.50;99.90;;;;;;10435103;28;20203;-81
2024/01/15 10:37:52;;;;;;;3.07;1.27;;;2.40;99.90;;;;;;10434627;28;20628;-76
2024/01/15 10:43:13;;;;;;;7.70;1.90;;;2.50;99.90;;;;;;10431428;28;20202;-77
2024/01/15 10:48:35;;;;;;;9.93;3.50;;;2.40;99.90;;;;;;10433014;28;20744;-78
2024/01/15 10:54:00;;;;;;;6.73;2.00;;;2.40;1.00;;;;;;10454791;28;20193;-78
2024/01/15 10:59:22;;;;;;;10.03;3.13;;;2.30;1.00;;;;;;10433949;28;20236;-76
2024/01/15 11:04:45;;;;;;;6.83;2.17;;;2.30;1.00;;;;;;10433660;28;20293;-82
2024/01/15 11:10:10;;;;;;;5.27;1.60;;;2.50;1.00;;;;;;10443073;28;20290;-82
2024/01/15 11:15:31;;;;;;;7.70;2.47;;;2.50;99.90;;;;;;10398546;28;20321;-81
2024/01/15 11:21:15;;;;;;;3.77;1.70;;;2.50;99.90;;;;;;10432943;28;20196;-78
2024/01/15 11:26:41;;;;;;;19.37;9.27;;;2.50;99.90;;;;;;10392080;28;20316;-82
2024/01/15 11:32:06;;;;;;;4.40;2.43;;;2.30;99.90;;;;;;10364753;28;20196;-79
2024/01/15 11:37:54;;;;;;;4.03;1.60;;;2.30;99.90;;;;;;10375135;28;20281;-82
2024/01/15 11:43:20;;;;;;;3.73;1.40;;;2.20;99.90;;;;;;10420695;28;20582;-78
2024/01/15 11:48:47;;;;;;;6.40;2.80;;;2.10;1.00;;;;;;10376976;28;20498;-80
2024/01/15 11:54:11;;;;;;;8.70;4.40;;;2.20;1.00;;;;;;10404746;28;20220;-81
2024/01/15 11:59:33;;;;;;;4.93;2.47;;;2.20;1.00;;;;;;10424680;28;20315;-79
2024/01/15 12:04:55;;;;;;;4.00;2.40;;;2.00;1.00;;;;;;10403695;28;20241;-81
2024/01/15 12:10:20;;;;;;;4.73;1.70;;;1.90;1.00;;;;;;10422359;28;20217;-79
2024/01/15 12:15:43;;;;;;;3.73;1.20;;;1.90;1.00;;;;;;10405028;28;20239;-80
2024/01/15 12:21:19;;;;;;;4.37;1.43;;;1.80;1.00;;;;;;10497505;27;20564;-81
2024/01/15 12:26:41;;;;;;;2.97;1.20;;;1.60;1.00;;;;;;10528686;27;20214;-83
2024/01/15 12:32:02;;;;;;;1.70;0.93;;;1.60;1.00;;;;;;10444329;28;20570;-84
2024/01/15 12:37:25;;;;;;;2.77;1.70;;;1.50;1.00;;;;;;10431203;28;20582;-81
2024/01/15 12:42:46;;;;;;;2.40;1.33;;;1.40;99.90;;;;;;10439745;28;20209;-79
2024/01/15 12:48:08;;;;;;;1.70;1.20;;;1.40;1.00;;;;;;10443465;28;20210;-80
2024/01/15 12:53:31;;;;;;;2.50;0.97;;;1.20;1.00;;;;;;10442028;28;20653;-80
2024/01/15 12:58:52;;;;;;;2.13;0.90;;;1.20;1.00;;;;;;10441943;27;20236;-82
2024/01/15 13:04:23;;;;;;;1.87;1.27;;;1.10;1.00;;;;;;10428802;28;20204;-79
2024/01/15 13:09:46;;;;;;;2.93;1.53;;;1.20;1.00;;;;;;10452408;27;20514;-80
2024/01/15 13:15:11;;;;;;;6.63;1.70;;;1.10;1.00;;;;;;10610733;27;20440;-80
2024/01/15 13:20:33;;;;;;;7.23;2.70;;;1.00;1.00;;;;;;10538141;27;20241;-81
2024/01/15 13:25:54;;;;;;;1.87;1.10;;;0.90;1.00;;;;;;10415655;28;20195;-81
2024/01/15 13:31:16;;;;;;;3.60;1.23;;;1.00;99.90;;;;;;10382851;28;20206;-81
2024/01/15 13:36:38;;;;;;;3.57;1.10;;;0.90;99.90;;;;;;10421093;28;20252;-80
2024/01/15 13:42:00;;;;;;;5.17;1.00;;;0.90;1.00;;;;;;10456202;28;20530;-81
2024/01/15 13:47:22;;;;;;;5.50;1.47;;;0.80;1.00;;;;;;10455991;28;20209;-82
2024/01/15 13:52:43;;;;;;;8.23;2.43;;;0.70;1.00;;;;;;10413845;28;20201;-79
2024/01/15 13:58:06;;;;;;;8.77;3.10;;;0.70;1.00;;;;;;10492566;27;20226;-79
2024/01/15 14:03:28;;;;;;;3.13;2.00;;;0.70;1.00;;;;;;10428162;28;20489;-80
2024/01/15 14:08:49;;;;;;;5.23;1.43;;;0.60;99.90;;;;;;10385270;28;20215;-81
2024/01/15 14:14:11;;;;;;;3.00;1.50;;;0.50;1.00;;;;;;10349511;27;20237;-80
2024/01/15 14:19:32;;;;;;;3.57;1.50;;;0.30;99.90;;;;;;10339133;28;20279;-81
2024/01/15 14:24:55;;;;;;;6.00;1.90;;;0.20;1.00;;;;;;10475280;28;20241;-80
2024/01/15 14:30:16;;;;;;;5.17;1.67;;;0.00;1.00;;;;;;10332170;28;20210;-80
2024/01/15 14:35:38;;;;;;;3.20;1.93;;;-0.10;1.00;;;;;;10355585;28;20231;-82
2024/01/15 14:41:01;;;;;;;4.70;1.90;;;0.00;99.90;;;;;;10344280;28;20233;-81
2024/01/15 14:46:23;;;;;;;5.47;2.20;;;0.00;21.10;;;;;;10317603;28;20449;-82
2024/01/15 14:51:45;;;;;;;11.50;3.87;;;0.10;99.90;;;;;;10436003;28;20197;-80
2024/01/15 14:57:06;;;;;;;7.47;2.63;;;0.10;99.90;;;;;;10385799;28;20540;-79
2024/01/15 15:02:28;;;;;;;10.80;2.60;;;0.00;99.90;;;;;;10371854;28;20238;-81
2024/01/15 15:07:50;;;;;;;10.20;3.40;;;-0.10;1.00;;;;;;10361280;28;20312;-78
2024/01/15 15:13:11;;;;;;;5.57;2.57;;;0.00;1.00;;;;;;10395372;28;20239;-78
2024/01/15 15:18:32;;;;;;;3.30;1.30;;;0.10;99.90;;;;;;10353538;28;20249;-79
2024/01/15 15:23:53;;;;;;;11.20;3.10;;;0.10;99.90;;;;;;10552355;28;20195;-78
2024/01/15 15:29:16;;;;;;;4.40;2.20;;;0.10;1.00;;;;;;10303760;28;20246;-80
2024/01/15 15:34:38;;;;;;;3.37;1.70;;;0.10;1.00;;;;;;10306172;28;20512;-79
2024/01/15 15:39:59;;;;;;;3.53;1.60;;;0.00;1.00;;;;;;10377175;28;20239;-79
2024/01/15 15:45:20;;;;;;;14.33;5.13;;;-0.10;99.90;;;;;;10384030;28;20246;-78
2024/01/15 15:50:42;;;;;;;3.73;1.77;;;-0.10;99.90;;;;;;10367734;28;20231;-79
2024/01/15 15:56:03;;;;;;;3.13;1.77;;;0.10;1.00;;;;;;10353753;28;20205;-79
2024/01/15 16:01:24;;;;;;;5.47;2.20;;;0.20;31.30;;;;;;10344996;28;20244;-78
2024/01/15 16:06:47;;;;;;;5.93;2.17;;;0.20;1.00;;;;;;10421463;28;20279;-79
2024/01/15 16:12:08;;;;;;;4.10;2.00;;;0.20;1.00;;;;;;10409142;28;20206;-79
2024/01/15 16:17:30;;;;;;;2.90;2.40;;;0.30;1.00;;;;;;10358621;28;20437;-79
2024/01/15 16:22:52;;;;;;;2.17;1.53;;;0.30;99.90;;;;;;10437536;28;20514;-78
2024/01/15 16:28:16;;;;;;;5.00;2.37;;;0.40;1.00;;;;;;10556327;28;20200;-79
2024/01/15 16:33:38;;;;;;;16.00;4.10;;;0.40;1.00;;;;;;10557881;28;20291;-78
2024/01/15 16:39:00;;;;;;;4.10;1.90;;;0.50;1.00;;;;;;10436771;28;20230;-78
2024/01/15 16:44:21;;;;;;;7.23;2.70;;;0.50;99.90;;;;;;10373725;28;20504;-79
2024/01/15 16:49:43;;;;;;;18.67;4.27;;;0.50;1.00;;;;;;10373529;28;20210;-78
2024/01/15 16:55:04;;;;;;;12.50;4.50;;;0.30;1.00;;;;;;10373472;28;20372;-79
2024/01/15 17:00:26;;;;;;;10.30;5.40;;;0.30;1.00;;;;;;10387195;28;20237;-79
2024/01/15 17:05:47;;;;;;;9.83;4.40;;;0.20;99.90;;;;;;10384552;28;20208;-78
2024/01/15 17:11:09;;;;;;;11.93;5.13;;;0.20;1.00;;;;;;10375897;28;20237;-78
2024/01/15 17:16:30;;;;;;;8.67;3.87;;;0.10;99.90;;;;;;10354027;28;20203;-78
2024/01/15 17:21:53;;;;;;;12.23;5.03;;;0.00;1.00;;;;;;10403846;28;20221;-79
2024/01/15 17:27:14;;;;;;;9.87;3.83;;;0.00;1.00;;;;;;10566113;28;20195;-78
2024/01/15 17:32:35;;;;;;;5.43;2.50;;;-0.10;1.00;;;;;;10551474;28;20218;-78
2024/01/15 17:37:56;;;;;;;10.47;4.30;;;-0.10;74.20;;;;;;10410692;28;20402;-77
2024/01/15 17:43:21;;;;;;;16.67;5.83;;;-0.20;1.00;;;;;;10352735;28;20273;-78
2024/01/15 17:48:43;;;;;;;9.20;3.70;;;-0.30;1.00;;;;;;10352432;28;20253;-78
2024/01/15 17:54:08;;;;;;;8.67;3.93;;;-0.30;99.90;;;;;;10351792;28;20211;-79
2024/01/15 17:59:29;;;;;;;9.47;4.70;;;-0.40;1.00;;;;;;10351945;28;20427;-79
2024/01/15 18:04:51;;;;;;;8.80;4.57;;;-0.30;1.00;;;;;;10351262;28;20505;-77
2024/01/15 18:10:12;;;;;;;12.47;4.80;;;-0.50;99.90;;;;;;10356690;28;20406;-79
2024/01/15 18:15:33;;;;;;;11.80;4.97;;;-0.50;1.00;;;;;;10339815;28;20241;-77
2024/01/15 18:20:55;;;;;;;11.13;3.93;;;-0.70;1.00;;;;;;10347530;28;20245;-78
2024/01/15 18:26:16;;;;;;;7.90;3.00;;;-1.00;1.00;;;;;;10564210;28;20191;-78
2024/01/15 18:31:38;;;;;;;8.13;2.73;;;-1.10;1.00;;;;;;10563855;28;20190;-79
2024/01/15 18:36:59;;;;;;;7.67;2.73;;;-1.40;1.00;;;;;;10436917;28;20265;-78
2024/01/15 18:42:20;;;;;;;5.60;2.67;;;-1.30;1.00;;;;;;10310556;28;20285;-80
2024/01/15 18:47:44;;;;;;;8.90;3.73;;;-1.30;1.00;;;;;;10324431;28;20206;-79
2024/01/15 18:53:06;;;;;;;5.90;2.93;;;-1.10;99.90;;;;;;10311443;28;20199;-79
2024/01/15 18:58:27;;;;;;;9.00;4.23;;;-1.30;99.90;;;;;;10323966;28;20445;-78
2024/01/15 19:03:48;;;;;;;5.60;2.60;;;-1.40;99.90;;;;;;10310708;28;20201;-78
2024/01/15 19:09:10;;;;;;;5.13;2.87;;;-1.70;1.00;;;;;;10386352;28;20516;-79
2024/01/15 19:14:31;;;;;;;10.73;5.07;;;-1.70;1.00;;;;;;10350570;28;20201;-79
2024/01/15 19:19:52;;;;;;;11.63;4.00;;;-1.70;1.00;;;;;;10414411;28;20864;-78
2024/01/15 19:25:13;;;;;;;6.27;3.13;;;-1.50;1.00;;;;;;10440970;28;20523;-78
2024/01/15 19:30:35;;;;;;;8.13;3.80;;;-1.50;1.00;;;;;;10358859;28;20207;-78
2024/01/15 19:35:56;;;;;;;16.53;7.03;;;-1.50;99.90;;;;;;10298523;28;20217;-78
2024/01/15 19:41:17;;;;;;;19.33;6.63;;;-1.60;99.90;;;;;;10310031;28;20230;-78
2024/01/15 19:46:39;;;;;;;14.73;5.13;;;-1.60;16.90;;;;;;10309515;28;20199;-79
2024/01/15 19:52:00;;;;;;;28.93;9.00;;;-1.70;1.00;;;;;;10341743;28;20213;-78
2024/01/15 19:57:22;;;;;;;8.43;3.97;;;-1.70;1.00;;;;;;10312143;28;20198;-78
2024/01/15 20:02:43;;;;;;;11.17;4.13;;;-1.70;67.90;;;;;;10383275;28;20235;-78
2024/01/15 20:08:05;;;;;;;17.27;5.37;;;-1.70;1.00;;;;;;10309791;28;20451;-80
2024/01/15 20:13:26;;;;;;;18.10;4.47;;;-1.80;99.90;;;;;;10347962;28;20198;-78
2024/01/15 20:18:48;;;;;;;5.77;1.73;;;-1.80;99.90;;;;;;10348976;28;20246;-79
2024/01/15 20:24:09;;;;;;;5.37;2.53;;;-1.70;1.00;;;;;;10464547;28;20192;-77
2024/01/15 20:29:31;;;;;;;8.07;2.00;;;-1.60;1.00;;;;;;10374707;28;20202;-78
2024/01/15 20:34:52;;;;;;;15.63;4.60;;;-1.60;1.00;;;;;;10349345;28;20236;-79
2024/01/15 20:40:14;;;;;;;12.57;4.47;;;-1.70;1.00;;;;;;10380895;28;20237;-79
2024/01/15 20:45:35;;;;;;;8.23;3.03;;;-1.70;1.00;;;;;;10360591;28;20218;-78
2024/01/15 20:50:57;;;;;;;8.00;2.43;;;-1.60;1.00;;;;;;10395195;28;20207;-79
2024/01/15 20:56:19;;;;;;;5.10;2.30;;;-1.70;99.90;;;;;;10395859;28;20191;-78
2024/01/15 21:01:41;;;;;;;12.83;3.43;;;-1.70;99.90;;;;;;10394917;28;20249;-77
2024/01/15 21:07:07;;;;;;;14.07;3.80;;;-1.80;99.90;;;;;;10394439;28;20272;-78
2024/01/15 21:12:29;;;;;;;10.80;3.93;;;-1.80;99.90;;;;;;10322071;28;20401;-78
2024/01/15 21:17:52;;;;;;;9.80;3.43;;;-1.70;99.90;;;;;;10396796;28;20593;-77
2024/01/15 21:23:13;;;;;;;7.33;2.80;;;-1.90;99.90;;;;;;10442950;28;20386;-78
2024/01/15 21:28:35;;;;;;;6.40;1.80;;;-1.90;99.90;;;;;;10567474;28;20237;-77
2024/01/15 21:33:56;;;;;;;5.67;1.50;;;-1.80;99.90;;;;;;10567550;28;20257;-78
2024/01/15 21:39:19;;;;;;;3.63;1.23;;;-1.90;99.90;;;;;;10566133;28;20222;-78
2024/01/15 21:44:41;;;;;;;6.50;1.80;;;-1.90;80.90;;;;;;10565941;28;20196;-78
2024/01/15 21:50:06;;;;;;;8.73;2.63;;;-1.90;99.90;;;;;;10315149;28;20279;-78
2024/01/15 21:55:28;;;;;;;4.07;1.93;;;-1.90;99.90;;;;;;10312066;28;20206;-77
2024/01/15 22:00:49;;;;;;;3.20;1.67;;;-2.00;75.60;;;;;;10312993;28;20512;-77
2024/01/15 22:06:11;;;;;;;2.93;1.20;;;-2.00;81.50;;;;;;10311869;28;20202;-78
2024/01/15 22:11:32;;;;;;;4.43;1.73;;;-2.00;1.00;;;;;;10339859;28;20202;-77
2024/01/15 22:16:55;;;;;;;8.77;2.53;;;-1.90;27.80;;;;;;10336213;28;20551;-77
2024/01/15 22:22:16;;;;;;;5.97;2.13;;;-2.00;98.30;;;;;;10392181;28;20224;-78
2024/01/15 22:27:38;;;;;;;4.07;1.57;;;-2.10;99.90;;;;;;10565332;28;20268;-78
2024/01/15 22:32:59;;;;;;;12.87;4.50;;;-2.10;46.30;;;;;;10563902;28;20190;-78
2024/01/15 22:38:21;;;;;;;9.30;3.00;;;-2.30;9.80;;;;;;10563714;28;20206;-78
2024/01/15 22:43:45;;;;;;;7.00;2.70;;;-2.30;1.00;;;;;;10564618;28;20191;-77
2024/01/15 22:49:06;;;;;;;4.23;1.47;;;-2.40;1.00;;;;;;10333318;28;20208;-78
2024/01/15 22:54:28;;;;;;;5.23;1.83;;;-2.50;10.60;;;;;;10341195;28;20404;-78
2024/01/15 22:59:49;;;;;;;6.23;2.20;;;-2.60;83.40;;;;;;10351580;28;20232;-77
2024/01/15 23:05:12;;;;;;;10.40;4.00;;;-2.60;99.90;;;;;;10349572;28;20550;-78
2024/01/15 23:10:33;;;;;;;4.67;1.57;;;-2.50;99.90;;;;;;10350138;28;20255;-77
2024/01/15 23:15:54;;;;;;;7.13;2.00;;;-2.50;1.00;;;;;;10353649;28;20197;-77
2024/01/15 23:21:16;;;;;;;6.23;1.60;;;-2.70;1.00;;;;;;10352045;28;20266;-78
2024/01/15 23:26:37;;;;;;;7.70;1.90;;;-3.00;1.00;;;;;;10562039;28;20200;-78
2024/01/15 23:32:00;;;;;;;4.90;1.90;;;-2.90;1.00;;;;;;10547519;28;20194;-78
2024/01/15 23:37:21;;;;;;;3.83;1.50;;;-3.00;1.00;;;;;;10561273;28;20197;-79
2024/01/15 23:42:43;;;;;;;4.67;1.60;;;-2.90;1.00;;;;;;10546957;28;20586;-77
2024/01/15 23:48:05;;;;;;;5.40;2.07;;;-2.90;1.00;;;;;;10396517;28;20204;-78
2024/01/15 23:53:27;;;;;;;9.13;2.20;;;-2.90;1.00;;;;;;10389393;28;20272;-77
2024/01/15 23:58:49;;;;;;;5.80;1.37;;;-2.80;1.00;;;;;;10362087;28;20220;-78
